Airfield :
LOGIN :

Register | Disclaimer

   EN    FR    IT 

 










Legend :    VFR   Marginal VFR   IFR   Intensive IFR   Very Intensive IFR
Visi :
Ceiling :
>= 8 km
>= 3000ft
5 to 8 km
1000 to 3000 ft
1500m to 5 km
500 to 1000 ft
800 to 1500m
200 to 500 ft
< 800m
< 200 ft
Symbols :   Thunderstorms  Fog  Heavy snow  Heavy precipitations  Wind > 20 kt
SIGMETs :     Misc.  Thunderstorms  Icing  Turbulence  Mountain Waves  Volcanic Ashes






- Airport Elevation : 461 ft
- IATA code : WIE


ETOU - Wiesbaden Army

CURRENT METAR :
  • 200711Z AUTO 28009KT 9999 -RA SCT015 SCT027 03/M00 A3023 RMK AO2 SLP246 $

EXPIRED METARs :
  • 200656Z AUTO 27008KT 9999 -RA SCT013 SCT029 03/M01 A3022 RMK AO2 RAB07 SLP243 P0005 T00291007
  • 200607Z AUTO 27008KT 9999 -RA FEW022 SCT035 SCT065 03/M01 A3022 RMK AO2 RAB07 SLP243 $
  • 200556Z AUTO 28009KT 9999 SCT022 SCT038 BKN065 03/M01 A3022 RMK AO2 DZB10E13RAB13E21RAB26E49 SLP243 P0001 60001 T00291009 10043 20016 58002
  • 200546Z AUTO 28007KT 9999 -RA SCT022 03/M01 A3022 RMK AO2 DZB10E13RAB13E21RAB26 SLP243 $
  • 200526Z AUTO 28009KT 9999 -RA FEW019 SCT027 SCT065 02/M01 A3022 RMK AO2 DZB10E13RAB13E21RAB26 SLP244 $
  • 200510Z AUTO 26008KT 9999 -DZ FEW027 BKN065 02/M01 A3021 RMK AO2 DZB10 SLP240 $
  • 200456Z AUTO 26006KT 9999 BKN065 03/M02 A3021 RMK AO2 SLP239 T00291017 $

TAF AMD TAF ETOU
Valid from the 20 at 06:00 until the 21 at 11:00 UTC


200629Z 2006/2111 29010G20KT 8000 -RA BKN015 OVC020 620404 QNH3020INS
BECMG 2009/2010 33010G20KT 9000 -RA BKN015 OVC025 650404 QNH3026INS
BECMG 2015/2016 31010KT 9999 NSW SCT015 OVC025 620404 QNH3032INS
TEMPO 2019/2023 8000 -SN
BECMG 2101/2102 31008KT 9999 BKN015 620206 QNH3032INS TX02/2015Z TNM01/2102Z



MET'MAP, your aeronautical weather chart ! - Copyright ORBIFLY December 2007 - Disclaimer

ORBIFLY MET'MAP TEAM :

Programming & Development : Alexandra Zaïnal
Concept & original design : Baudouin d'Aumeries
Assistance for programming : Marc-Olivier Méhu
Technical & hardware support : Manuel Goepfert

Contact : metmap@orbifly.com




SOURCES & CREDITS :

   NOAA